Walters, Mississippi
Current Conditions -  °F | °C
As of 2:55 PM on Sunday 21 Dec 2014 (Local Time) from KPIB Reporting Station
Overcast Overcast  
Wind Chill: 54°   Ceiling: 1200
Heat Index: 54°   Visibility: 10mi
Dew Point: 46°   Wind: 5mph
Humidity: 77%   Direction: 50°NE
Pressure: 30.04"   Gusts: NA
Location:  31.5533°N, 89.2322°W
Report Text: KPIB 212055Z AUTO 05004KT 10SM OVC012 12/08 A3004 RMK AO1 57027
Loading
Personal Weather Stations






























Interactive Weather Map New forecast layout! Learn more

10-Day Weather Forecast

Advertisements
Track Severe Weather on mobile